Greenville Farm
1800 N 800 E, North Logan
Last Weather Update:4/29/2012 11:00:00 PM
Date
ETo
ETc
Rain
Irrigation
Req
Temp
Max
Temp
Min
Temp
Avg
Avg RH
Avg Wind
Avg Solar
inches
inches
incehs
inches
F
F
F
%
%
watts/m2
3/1/2012 0.03" 0.00" 0.22" -0.18" 34.9° 13.0° 23.2° 78.2% 1.8 MPH 9.4w/m2
3/2/2012 0.03" 0.00" 0.19" -0.15" 35.0° 11.2° 23.0° 78.8% 2.4 MPH 10.8w/m2
3/3/2012 0.03" 0.00" 0.00" 0.00" 36.0° 23.9° 30.3° 63.3% 1.9 MPH 5.3w/m2
3/4/2012 0.08" 0.00" 0.00" 0.00" 50.4° 31.0° 38.5° 62.1% 2.0 MPH 16.4w/m2
3/5/2012 0.10" 0.00" 0.00" 0.00" 58.8° 24.7° 41.1° 57.0% 3.3 MPH 17.5w/m2
3/6/2012 0.05" 0.00" 0.00" 0.00" 54.0° 23.8° 40.7° 54.7% 7.6 MPH 4.8w/m2
3/7/2012 0.07" 0.00" 0.01" -0.01" 36.6° 23.0° 28.4° 60.8% 4.7 MPH 17.3w/m2
3/8/2012 0.08" 0.00" 0.00" 0.00" 45.6° 18.8° 31.3° 59.7% 2.8 MPH 18.4w/m2
3/9/2012 0.09" 0.00" 0.00" 0.00" 51.4° 22.8° 35.7° 59.7% 2.6 MPH 18.6w/m2
3/10/2012 0.10" 0.00" 0.00" 0.00" 56.1° 24.0° 38.6° 56.5% 3.1 MPH 18.6w/m2
3/11/2012 0.11" 0.00" 0.00" 0.00" 59.1° 27.8° 43.0° 47.9% 3.8 MPH 17.6w/m2
3/12/2012 0.13" 0.00" 0.00" 0.00" 61.4° 34.2° 48.7° 43.2% 4.6 MPH 18.2w/m2
3/13/2012 0.14" 0.00" 0.00" 0.00" 59.5° 48.1° 54.1° 25.2% 7.1 MPH 8.7w/m2
3/14/2012 0.11" 0.00" 0.00" 0.00" 59.6° 46.0° 52.3° 37.8% 5.0 MPH 8.6w/m2
3/15/2012 0.12" 0.00" 0.00" 0.00" 65.3° 36.8° 51.2° 48.5% 3.9 MPH 16.3w/m2
3/16/2012 0.10" 0.00" 0.00" 0.00" 63.0° 44.2° 53.0° 43.7% 5.0 MPH 8.2w/m2
3/17/2012 0.13" 0.00" 0.01" -0.01" 63.1° 44.4° 54.0° 43.0% 7.7 MPH 8.0w/m2
3/18/2012 0.06" 0.00" 0.28" -0.22" 47.2° 30.6° 40.0° 72.2% 5.3 MPH 9.2w/m2
3/19/2012 0.07" 0.00" 0.17" -0.14" 38.2° 25.6° 31.2° 72.4% 4.4 MPH 15.0w/m2
3/20/2012 0.09" 0.00" 0.00" 0.00" 42.6° 19.8° 32.1° 54.5% 3.8 MPH 20.1w/m2
3/21/2012 0.12" 0.00" 0.00" 0.00" 58.7° 32.9° 45.2° 50.6% 3.2 MPH 20.4w/m2
3/22/2012 0.13" 0.00" 0.00" 0.00" 67.1° 31.0° 49.3° 49.3% 3.2 MPH 19.7w/m2
3/23/2012 0.17" 0.00" 0.00" 0.00" 68.8° 44.7° 56.6° 34.5% 5.7 MPH 18.9w/m2
3/24/2012 0.12" 0.00" 0.00" 0.00" 69.1° 34.3° 51.4° 48.7% 3.3 MPH 17.1w/m2
3/25/2012 0.11" 0.00" 0.00" 0.00" 67.0° 40.7° 54.6° 39.2% 3.2 MPH 12.1w/m2
3/26/2012 0.07" 0.00" 0.11" -0.09" 51.3° 33.7° 42.9° 60.9% 5.5 MPH 7.5w/m2
3/27/2012 0.12" 0.00" 0.00" 0.00" 59.3° 32.0° 43.8° 62.1% 3.0 MPH 20.3w/m2
3/28/2012 0.12" 0.00" 0.08" -0.06" 60.5° 35.0° 47.8° 49.0% 5.5 MPH 12.8w/m2
3/29/2012 0.07" 0.00" 0.13" -0.10" 54.9° 30.9° 42.0° 76.5% 3.0 MPH 14.3w/m2
3/30/2012 0.12" 0.00" 0.00" 0.00" 65.4° 42.9° 52.7° 56.2% 3.2 MPH 16.0w/m2
3/31/2012 0.22" 0.00" 0.00" 0.00" 74.7° 44.3° 61.1° 37.2% 6.7 MPH 22.8w/m2
Totals: 3.09" 0.00" 1.20" -0.96" 74.7° 11.2° 43.2° 54.3% 4.1 MPH 14.5w/m2